Time;durP1;ratioP1;P1;durP2;ratioP2;P2;SDS_P1;SDS_P2;PMS_P1;PMS_P2;Temp;Humidity;BMP_temperature;BMP_pressure;BME280_temperature;BME280_humidity;BME280_pressure;Samples;Min_cycle;Max_cycle;Signal;HPM_P1;HPM_P2
2022/12/06 00:01:20;;;;;;;5.53;4.95;;;17.20;48.70;;;;;;5018991;28;20204;-68
2022/12/06 00:03:48;;;;;;;5.32;4.80;;;17.20;48.80;;;;;;5018677;28;20193;-68
2022/12/06 00:06:16;;;;;;;6.05;4.63;;;17.20;48.90;;;;;;5017229;28;20207;-68
2022/12/06 00:08:43;;;;;;;5.45;4.95;;;17.20;48.90;;;;;;5015684;28;20212;-68
2022/12/06 00:11:12;;;;;;;4.75;4.35;;;17.20;48.90;;;;;;5016197;28;20196;-69
2022/12/06 00:13:40;;;;;;;5.05;4.30;;;17.20;49.00;;;;;;5015470;28;20196;-68
2022/12/06 00:16:08;;;;;;;5.68;4.90;;;17.20;48.90;;;;;;5015336;28;20201;-69
2022/12/06 00:18:36;;;;;;;5.50;4.88;;;17.10;48.80;;;;;;5015643;28;20707;-69
2022/12/06 00:21:07;;;;;;;5.28;4.47;;;17.10;48.90;;;;;;5016934;28;20200;-69
2022/12/06 00:23:36;;;;;;;5.55;4.85;;;17.10;48.90;;;;;;5015987;28;20201;-68
2022/12/06 00:26:03;;;;;;;5.00;4.38;;;17.10;49.00;;;;;;5017411;28;20659;-69
2022/12/06 00:28:32;;;;;;;5.22;4.45;;;17.10;49.00;;;;;;5015683;28;20296;-69
2022/12/06 00:31:00;;;;;;;5.45;4.95;;;17.00;48.90;;;;;;5015054;28;20205;-69
2022/12/06 00:33:27;;;;;;;5.00;4.13;;;17.00;48.90;;;;;;5015719;28;20223;-68
2022/12/06 00:35:58;;;;;;;6.13;5.30;;;17.00;49.00;;;;;;5014850;28;20204;-68
2022/12/06 00:38:25;;;;;;;5.30;4.80;;;17.00;49.20;;;;;;5014469;28;20205;-70
2022/12/06 00:40:58;;;;;;;5.50;5.00;;;17.00;49.10;;;;;;5014259;28;20196;-69
2022/12/06 00:43:25;;;;;;;4.97;4.45;;;16.90;49.20;;;;;;5013568;28;20251;-69
2022/12/06 00:45:53;;;;;;;5.55;5.05;;;16.90;49.20;;;;;;5014172;28;20196;-69
2022/12/06 00:48:20;;;;;;;5.45;4.90;;;16.90;49.10;;;;;;5014506;28;20200;-68
2022/12/06 00:50:47;;;;;;;5.50;5.00;;;16.90;49.20;;;;;;5014437;28;20221;-69
2022/12/06 00:53:14;;;;;;;5.22;4.72;;;16.80;49.20;;;;;;5015073;28;20570;-68
2022/12/06 00:55:42;;;;;;;5.40;4.90;;;16.90;49.30;;;;;;5014330;28;20200;-68
2022/12/06 00:58:09;;;;;;;6.03;5.43;;;16.80;49.20;;;;;;5014170;28;20283;-68
2022/12/06 01:00:37;;;;;;;4.82;4.22;;;16.80;49.30;;;;;;5014373;28;20193;-68
2022/12/06 01:03:05;;;;;;;6.28;5.05;;;16.80;49.20;;;;;;5015545;28;20279;-68
2022/12/06 01:05:32;;;;;;;5.30;4.80;;;16.80;49.20;;;;;;5013902;28;20216;-68
2022/12/06 01:07:59;;;;;;;5.65;5.15;;;16.80;49.20;;;;;;5014204;28;20201;-68
2022/12/06 01:10:26;;;;;;;5.20;4.70;;;16.80;49.20;;;;;;5013815;28;20221;-69
2022/12/06 01:12:53;;;;;;;4.47;4.07;;;16.80;49.10;;;;;;5015187;28;20191;-69
2022/12/06 01:15:19;;;;;;;5.03;4.60;;;16.70;49.10;;;;;;5014376;28;20197;-69
2022/12/06 01:17:47;;;;;;;5.65;4.65;;;16.70;49.10;;;;;;5014366;28;20236;-69
2022/12/06 01:20:15;;;;;;;5.15;4.65;;;16.70;49.00;;;;;;5015289;28;20213;-69
2022/12/06 01:22:44;;;;;;;4.80;4.40;;;16.70;49.00;;;;;;5014065;28;20224;-69
2022/12/06 01:25:11;;;;;;;5.03;4.53;;;16.70;49.10;;;;;;5013807;28;20197;-69
2022/12/06 01:27:38;;;;;;;5.35;4.35;;;16.70;49.10;;;;;;5013501;28;20201;-69
2022/12/06 01:30:06;;;;;;;4.90;4.45;;;16.70;49.10;;;;;;5013221;28;20278;-69
2022/12/06 01:32:33;;;;;;;4.43;4.03;;;16.60;48.90;;;;;;5013216;28;20601;-68
2022/12/06 01:35:00;;;;;;;5.70;4.47;;;16.60;49.00;;;;;;5014561;28;20193;-68
2022/12/06 01:37:29;;;;;;;4.82;4.32;;;16.60;49.10;;;;;;5014504;28;20656;-68
2022/12/06 01:39:56;;;;;;;4.90;4.20;;;16.60;49.20;;;;;;5013131;28;20216;-68
2022/12/06 01:42:23;;;;;;;5.05;4.20;;;16.60;49.20;;;;;;5013212;28;20197;-68
2022/12/06 01:44:51;;;;;;;4.63;4.22;;;16.50;49.20;;;;;;5012942;28;20223;-68
2022/12/06 01:47:19;;;;;;;4.68;4.28;;;16.50;49.30;;;;;;5012726;28;20303;-68
2022/12/06 01:49:48;;;;;;;5.10;4.30;;;16.50;49.30;;;;;;5012703;28;20758;-68
2022/12/06 01:52:16;;;;;;;4.65;4.25;;;16.50;49.30;;;;;;5012961;28;20208;-68
2022/12/06 01:54:44;;;;;;;6.60;4.60;;;16.50;49.40;;;;;;5012858;28;20224;-68
2022/12/06 01:57:12;;;;;;;4.72;4.13;;;16.40;49.40;;;;;;5013065;28;20216;-68
2022/12/06 01:59:39;;;;;;;4.85;4.28;;;16.40;49.40;;;;;;5014142;28;20310;-68
2022/12/06 02:02:07;;;;;;;4.97;4.30;;;16.40;49.50;;;;;;5012863;28;20205;-68
2022/12/06 02:04:35;;;;;;;4.60;4.13;;;16.40;49.50;;;;;;5012866;28;20193;-68
2022/12/06 02:07:02;;;;;;;4.70;4.30;;;16.40;50.10;;;;;;5012840;28;20201;-68
2022/12/06 02:09:29;;;;;;;4.85;4.45;;;16.30;49.50;;;;;;5014158;28;20275;-68
2022/12/06 02:11:58;;;;;;;5.82;3.88;;;16.40;49.60;;;;;;5012688;28;20200;-68
2022/12/06 02:14:26;;;;;;;4.22;3.83;;;16.40;49.70;;;;;;5012730;28;20552;-68
2022/12/06 02:17:02;;;;;;;4.68;4.18;;;16.30;49.70;;;;;;5012910;28;20196;-69
2022/12/06 02:19:54;;;;;;;4.47;4.07;;;16.30;49.70;;;;;;5029359;28;20228;-68
2022/12/06 02:22:25;;;;;;;4.40;4.00;;;16.30;49.70;;;;;;5014030;28;20185;-68
2022/12/06 02:25:04;;;;;;;4.68;3.95;;;16.30;49.70;;;;;;5016633;28;20169;-68
2022/12/06 02:27:55;;;;;;;4.60;4.20;;;16.30;49.70;;;;;;5012859;28;20674;-68
2022/12/06 02:30:36;;;;;;;4.50;4.10;;;16.30;49.80;;;;;;4984503;28;20248;-68
2022/12/06 02:33:05;;;;;;;4.82;4.05;;;16.30;49.80;;;;;;5012778;28;20291;-68
2022/12/06 02:35:33;;;;;;;4.57;3.92;;;16.30;49.80;;;;;;5013911;28;20200;-68
2022/12/06 02:38:03;;;;;;;4.38;3.97;;;16.30;49.80;;;;;;5012606;28;20196;-68
2022/12/06 02:40:32;;;;;;;4.20;3.58;;;16.30;49.80;;;;;;5029302;28;20235;-68
2022/12/06 02:43:00;;;;;;;4.10;3.75;;;16.30;49.80;;;;;;5028923;28;20219;-68
2022/12/06 02:45:28;;;;;;;4.00;3.70;;;16.20;49.70;;;;;;5013135;28;20607;-68
2022/12/06 02:47:57;;;;;;;3.80;3.45;;;16.30;49.80;;;;;;5012809;28;20204;-68
2022/12/06 02:50:26;;;;;;;3.80;3.50;;;16.30;49.70;;;;;;5014155;28;20759;-68
2022/12/06 02:52:54;;;;;;;3.85;3.53;;;16.30;49.80;;;;;;5012706;28;20232;-68
2022/12/06 02:55:21;;;;;;;4.50;4.10;;;16.20;49.70;;;;;;5012524;28;20201;-68
2022/12/06 02:57:50;;;;;;;4.18;3.78;;;16.20;49.70;;;;;;5012417;28;20608;-68
2022/12/06 03:00:42;;;;;;;3.88;3.47;;;16.20;49.70;;;;;;5012747;28;20220;-68
2022/12/06 03:03:38;;;;;;;3.97;3.67;;;16.20;49.80;;;;;;4999141;28;20219;-69
2022/12/06 03:06:35;;;;;;;4.35;3.88;;;16.20;49.80;;;;;;5003971;28;20207;-69
2022/12/06 03:09:06;;;;;;;3.90;3.60;;;16.20;49.80;;;;;;5013075;28;20278;-69
2022/12/06 03:11:35;;;;;;;3.60;3.30;;;16.20;49.80;;;;;;5014576;28;20213;-68
2022/12/06 03:14:04;;;;;;;3.85;3.55;;;16.20;49.80;;;;;;5013182;28;20235;-68
2022/12/06 03:16:32;;;;;;;3.92;3.53;;;16.20;49.90;;;;;;5012687;28;20583;-68
2022/12/06 03:19:03;;;;;;;3.70;3.35;;;16.20;49.80;;;;;;5013802;28;20692;-68
2022/12/06 03:21:32;;;;;;;3.90;3.60;;;16.20;49.80;;;;;;5012441;28;20219;-68
2022/12/06 03:23:59;;;;;;;4.47;3.83;;;16.20;49.80;;;;;;5011082;28;20205;-68
2022/12/06 03:26:27;;;;;;;4.30;3.90;;;16.20;49.80;;;;;;5013698;28;20248;-69
2022/12/06 03:28:55;;;;;;;4.07;3.70;;;16.20;49.80;;;;;;5008272;28;20225;-69
2022/12/06 03:31:22;;;;;;;4.20;3.80;;;16.20;49.80;;;;;;5015220;28;20220;-69
2022/12/06 03:33:52;;;;;;;4.18;3.78;;;16.20;49.90;;;;;;5014904;28;20212;-69
2022/12/06 03:36:21;;;;;;;4.28;3.88;;;16.20;49.90;;;;;;5014642;28;20201;-68
2022/12/06 03:38:50;;;;;;;3.85;3.55;;;16.10;49.70;;;;;;5014764;28;20246;-69
2022/12/06 03:41:18;;;;;;;4.50;4.10;;;16.10;49.90;;;;;;5014832;28;20276;-69
2022/12/06 03:43:46;;;;;;;3.70;3.40;;;16.10;49.90;;;;;;5016198;28;20197;-68
2022/12/06 03:46:14;;;;;;;4.20;3.83;;;16.10;49.80;;;;;;5015005;28;20302;-68
2022/12/06 03:48:43;;;;;;;4.15;3.65;;;16.10;50.00;;;;;;4999135;28;20695;-68
2022/12/06 03:51:10;;;;;;;3.60;3.30;;;16.10;49.80;;;;;;5015534;28;20706;-68
2022/12/06 03:53:46;;;;;;;4.43;4.03;;;16.10;49.80;;;;;;5016490;28;20276;-68
2022/12/06 03:56:14;;;;;;;4.35;3.80;;;16.10;49.80;;;;;;5015218;28;20192;-68
2022/12/06 03:58:41;;;;;;;4.25;3.72;;;16.10;49.80;;;;;;5014917;28;20212;-68
2022/12/06 04:01:08;;;;;;;4.20;3.80;;;16.10;49.80;;;;;;5015223;28;20283;-68
2022/12/06 04:03:35;;;;;;;4.10;3.70;;;16.10;49.90;;;;;;5015434;28;20656;-68
2022/12/06 04:06:03;;;;;;;3.75;3.38;;;16.10;49.80;;;;;;5015247;28;20598;-68
2022/12/06 04:08:30;;;;;;;3.95;3.65;;;16.10;49.80;;;;;;5014908;28;20201;-69
2022/12/06 04:10:59;;;;;;;4.18;3.78;;;16.10;49.80;;;;;;5015168;28;20227;-69
2022/12/06 04:13:26;;;;;;;4.00;3.60;;;16.10;49.70;;;;;;5014861;28;20207;-69
2022/12/06 04:15:55;;;;;;;3.75;3.45;;;16.10;49.90;;;;;;5015562;28;20193;-69
2022/12/06 04:18:21;;;;;;;3.65;3.30;;;16.10;50.20;;;;;;5014817;28;20224;-69
2022/12/06 04:23:35;;;;;;;4.20;3.63;;;16.10;50.20;;;;;;5015306;28;20595;-69
2022/12/06 04:26:04;;;;;;;3.80;3.50;;;16.10;50.10;;;;;;5016047;28;20264;-69
2022/12/06 04:39:29;;;;;;;3.60;3.30;;;16.30;49.90;;;;;;5015213;28;20205;-68
2022/12/06 04:44:43;;;;;;;3.63;3.33;;;16.40;49.70;;;;;;5014689;28;20244;-68
2022/12/06 04:47:10;;;;;;;4.10;3.72;;;16.40;49.60;;;;;;5014514;28;20219;-68
2022/12/06 04:49:37;;;;;;;3.80;3.40;;;16.40;49.50;;;;;;5015519;28;20213;-68
2022/12/06 04:52:05;;;;;;;3.60;3.30;;;16.40;49.50;;;;;;5014411;28;20572;-68
2022/12/06 04:54:32;;;;;;;4.60;3.63;;;16.50;49.60;;;;;;5014054;28;20600;-68
2022/12/06 04:57:00;;;;;;;3.78;3.47;;;16.50;49.50;;;;;;5014391;28;20667;-69
2022/12/06 04:59:28;;;;;;;3.60;3.30;;;16.50;49.30;;;;;;5014319;28;20231;-69
2022/12/06 05:01:55;;;;;;;3.40;3.15;;;16.50;49.30;;;;;;5015040;28;20515;-69
2022/12/06 05:04:22;;;;;;;3.30;3.00;;;16.50;49.30;;;;;;5015460;28;20591;-69
2022/12/06 05:06:49;;;;;;;3.30;3.00;;;16.50;49.30;;;;;;5015435;28;20302;-68
2022/12/06 05:09:16;;;;;;;3.42;3.13;;;16.50;49.20;;;;;;5014559;28;20606;-68
2022/12/06 05:11:44;;;;;;;3.60;3.30;;;16.50;49.20;;;;;;5015236;28;20208;-68
2022/12/06 05:14:12;;;;;;;3.58;3.28;;;16.50;49.10;;;;;;5014302;28;20648;-68
2022/12/06 05:16:39;;;;;;;3.45;3.13;;;16.50;49.10;;;;;;5014940;28;20299;-68
2022/12/06 05:19:06;;;;;;;3.63;3.33;;;16.50;48.90;;;;;;5014739;28;20615;-68
2022/12/06 05:21:33;;;;;;;3.20;3.00;;;16.50;48.90;;;;;;5014708;28;20193;-68
2022/12/06 05:24:01;;;;;;;3.38;3.08;;;16.60;48.90;;;;;;5018173;28;20205;-69
2022/12/06 05:26:28;;;;;;;3.20;2.90;;;16.60;48.80;;;;;;5018400;28;20292;-68
2022/12/06 05:28:55;;;;;;;3.47;3.17;;;16.60;48.90;;;;;;4990465;28;20224;-69
2022/12/06 05:31:24;;;;;;;3.33;3.03;;;16.60;48.90;;;;;;5014939;28;20224;-69
2022/12/06 05:33:51;;;;;;;3.40;3.10;;;16.60;48.90;;;;;;5016301;28;20703;-70
2022/12/06 05:36:19;;;;;;;3.72;3.30;;;16.60;48.70;;;;;;5015799;28;20196;-70
2022/12/06 05:38:47;;;;;;;3.70;3.40;;;16.60;48.80;;;;;;5017396;28;20209;-69
2022/12/06 05:41:14;;;;;;;3.28;2.97;;;16.70;49.00;;;;;;5014634;28;20291;-70
2022/12/06 05:43:41;;;;;;;3.40;3.10;;;16.70;49.00;;;;;;5015340;28;20266;-68
2022/12/06 05:46:08;;;;;;;3.67;3.30;;;16.70;49.00;;;;;;5014311;28;20212;-69
2022/12/06 05:48:37;;;;;;;3.08;2.78;;;16.70;49.10;;;;;;5014106;28;20223;-68
2022/12/06 05:51:04;;;;;;;3.30;3.00;;;16.70;48.90;;;;;;5012940;28;20220;-68
2022/12/06 05:53:31;;;;;;;3.28;3.00;;;16.80;49.10;;;;;;5018921;28;20244;-69
2022/12/06 05:56:04;;;;;;;4.07;2.95;;;16.70;49.30;;;;;;4995529;28;20209;-69
2022/12/06 05:58:31;;;;;;;3.63;3.22;;;16.80;49.50;;;;;;5004707;28;20236;-68
2022/12/06 06:00:58;;;;;;;3.45;3.10;;;16.80;49.50;;;;;;5014047;28;20268;-68
2022/12/06 06:03:25;;;;;;;3.40;3.10;;;16.90;49.50;;;;;;5013221;28;20581;-68
2022/12/06 06:05:56;;;;;;;2.97;2.67;;;16.90;49.80;;;;;;5011886;28;20198;-68
2022/12/06 06:08:23;;;;;;;3.22;2.92;;;16.90;49.80;;;;;;5013623;28;20297;-68
2022/12/06 06:10:51;;;;;;;3.13;2.90;;;16.90;49.30;;;;;;4990162;28;20790;-68
2022/12/06 06:13:17;;;;;;;3.30;3.00;;;17.00;49.60;;;;;;5008645;28;20251;-68
2022/12/06 06:15:44;;;;;;;3.20;2.90;;;17.00;49.60;;;;;;5013018;28;20188;-68
2022/12/06 06:18:11;;;;;;;2.78;2.58;;;17.00;49.10;;;;;;4996495;28;20205;-68
2022/12/06 06:20:38;;;;;;;3.28;2.97;;;17.00;48.90;;;;;;4982556;28;20204;-68
2022/12/06 06:23:07;;;;;;;3.25;2.83;;;17.00;48.80;;;;;;5012819;28;20208;-69
2022/12/06 06:25:34;;;;;;;3.00;2.80;;;17.10;48.90;;;;;;5013125;28;20205;-68
2022/12/06 06:28:01;;;;;;;4.03;2.80;;;17.00;48.70;;;;;;5004206;28;20209;-69
2022/12/06 06:30:29;;;;;;;3.35;3.05;;;17.00;48.70;;;;;;4996654;28;20231;-68
2022/12/06 06:32:56;;;;;;;3.40;2.75;;;17.00;48.60;;;;;;4995019;28;20252;-69
2022/12/06 06:35:23;;;;;;;3.10;2.83;;;17.00;48.60;;;;;;4993182;28;20599;-69
2022/12/06 06:37:51;;;;;;;3.28;2.97;;;17.00;48.60;;;;;;4997392;28;20347;-68
2022/12/06 06:40:20;;;;;;;2.70;2.50;;;17.10;48.60;;;;;;5013867;28;20220;-68
2022/12/06 06:42:47;;;;;;;2.88;2.67;;;17.00;48.40;;;;;;5012808;28;20193;-68
2022/12/06 06:45:14;;;;;;;3.33;3.03;;;17.10;48.60;;;;;;5012887;28;20207;-68
2022/12/06 06:47:41;;;;;;;2.70;2.50;;;17.00;48.50;;;;;;5012844;28;20208;-68
2022/12/06 06:50:09;;;;;;;3.22;2.70;;;17.00;48.20;;;;;;5011284;28;20216;-68
2022/12/06 06:52:36;;;;;;;3.00;2.80;;;17.10;48.40;;;;;;4994854;28;20270;-68
2022/12/06 06:55:04;;;;;;;3.17;2.88;;;17.10;48.90;;;;;;5013010;28;20644;-68
2022/12/06 06:57:34;;;;;;;3.05;2.80;;;17.10;48.30;;;;;;5011766;28;20228;-68
2022/12/06 07:00:02;;;;;;;3.00;2.80;;;17.10;48.10;;;;;;5011902;28;20369;-68
2022/12/06 07:02:29;;;;;;;2.83;2.63;;;17.10;48.20;;;;;;5014376;28;20617;-68
2022/12/06 07:04:56;;;;;;;2.67;2.47;;;17.20;48.20;;;;;;5016043;28;20200;-68
2022/12/06 07:07:23;;;;;;;2.72;2.53;;;17.20;48.00;;;;;;5016031;28;20569;-68
2022/12/06 07:09:50;;;;;;;2.85;2.65;;;17.20;48.00;;;;;;5016522;28;20216;-68
2022/12/06 07:12:17;;;;;;;2.88;2.65;;;17.20;48.00;;;;;;5015822;28;20746;-68
2022/12/06 07:14:46;;;;;;;3.42;2.60;;;17.30;48.10;;;;;;5016153;28;20208;-68
2022/12/06 07:17:13;;;;;;;2.75;2.55;;;17.20;48.00;;;;;;5016001;28;20214;-68
2022/12/06 07:19:40;;;;;;;2.70;2.50;;;17.30;48.00;;;;;;5015714;28;20224;-68
2022/12/06 07:22:09;;;;;;;2.80;2.53;;;17.30;48.00;;;;;;5015775;28;20563;-68
2022/12/06 07:24:36;;;;;;;2.75;2.55;;;17.30;48.00;;;;;;5015741;28;20292;-68
2022/12/06 07:27:03;;;;;;;3.10;2.58;;;17.30;47.90;;;;;;5016189;28;20211;-68
2022/12/06 07:29:30;;;;;;;3.13;2.50;;;17.30;48.00;;;;;;5016750;28;20221;-68
2022/12/06 07:31:59;;;;;;;2.90;2.63;;;17.30;47.80;;;;;;5016193;28;20212;-68
2022/12/06 07:34:26;;;;;;;2.80;2.60;;;17.30;47.80;;;;;;5015711;28;20591;-68
2022/12/06 07:36:53;;;;;;;2.95;2.67;;;17.30;47.80;;;;;;5015594;28;20208;-68
2022/12/06 07:39:20;;;;;;;2.75;2.53;;;17.30;47.80;;;;;;5015395;28;20300;-68
2022/12/06 07:47:22;;;;;;;2.78;2.58;;;17.30;47.90;;;;;;5017055;28;20347;-68
2022/12/06 07:49:51;;;;;;;2.70;2.50;;;17.30;48.00;;;;;;5015633;28;20319;-68
2022/12/06 07:52:19;;;;;;;2.65;2.45;;;17.30;47.80;;;;;;5015384;28;20224;-68
2022/12/06 07:54:46;;;;;;;2.80;2.50;;;17.30;47.80;;;;;;5015409;28;20235;-68
2022/12/06 07:57:13;;;;;;;2.75;2.55;;;17.30;47.90;;;;;;5015473;28;20592;-68
2022/12/06 07:59:41;;;;;;;2.58;2.38;;;17.30;47.90;;;;;;5015568;28;20220;-68
2022/12/06 08:02:21;;;;;;;3.08;2.80;;;17.30;47.80;;;;;;5015416;28;20189;-68
2022/12/06 08:04:49;;;;;;;2.88;2.67;;;17.30;47.80;;;;;;5015462;28;20632;-68
2022/12/06 08:07:16;;;;;;;3.10;2.90;;;17.30;47.80;;;;;;5015178;28;20539;-68
2022/12/06 08:09:44;;;;;;;2.85;2.65;;;17.30;47.80;;;;;;5015244;28;20213;-68
2022/12/06 08:12:11;;;;;;;2.90;2.70;;;17.30;47.90;;;;;;5014955;28;20225;-68
2022/12/06 08:14:38;;;;;;;2.90;2.70;;;17.30;47.80;;;;;;5014008;28;20200;-68
2022/12/06 08:17:06;;;;;;;3.03;2.72;;;17.30;47.70;;;;;;5015815;28;20201;-68
2022/12/06 08:19:33;;;;;;;4.60;2.95;;;17.40;47.80;;;;;;5014910;28;20220;-68
2022/12/06 08:22:02;;;;;;;2.72;2.53;;;17.30;47.70;;;;;;5014890;28;20211;-68
2022/12/06 08:24:29;;;;;;;2.90;2.60;;;17.30;47.80;;;;;;5014736;28;20207;-68
2022/12/06 08:26:58;;;;;;;3.03;2.72;;;17.40;47.80;;;;;;5015930;28;20216;-68
2022/12/06 08:29:25;;;;;;;3.50;2.97;;;17.30;47.80;;;;;;5016127;28;20239;-68
2022/12/06 08:31:52;;;;;;;2.60;2.40;;;17.30;47.80;;;;;;5015103;28;20213;-68
2022/12/06 08:34:20;;;;;;;3.17;2.83;;;17.40;47.80;;;;;;5015138;28;20192;-68
2022/12/06 08:36:47;;;;;;;3.97;3.10;;;17.30;47.70;;;;;;4999803;28;20631;-69
2022/12/06 08:39:15;;;;;;;2.70;2.50;;;17.40;47.70;;;;;;5018490;28;20224;-69
2022/12/06 08:42:02;;;;;;;2.72;2.53;;;17.40;47.70;;;;;;5016966;28;20196;-69
2022/12/06 08:44:30;;;;;;;2.80;2.60;;;17.40;47.70;;;;;;5015122;28;20201;-68
2022/12/06 08:46:57;;;;;;;2.90;2.70;;;17.40;47.60;;;;;;5014491;28;20212;-68
2022/12/06 08:49:25;;;;;;;3.15;2.85;;;17.40;47.50;;;;;;5014661;28;20699;-68
2022/12/06 08:51:52;;;;;;;2.80;2.60;;;17.50;47.60;;;;;;5016082;28;20213;-68
2022/12/06 08:54:21;;;;;;;2.88;2.60;;;17.40;47.50;;;;;;5015809;28;20193;-68
2022/12/06 08:56:49;;;;;;;2.60;2.40;;;17.40;47.50;;;;;;5014450;28;20200;-68
2022/12/06 08:59:16;;;;;;;2.38;2.20;;;17.40;47.50;;;;;;5014191;28;20217;-68
2022/12/06 09:01:44;;;;;;;2.55;2.35;;;17.50;47.40;;;;;;5015516;28;20197;-68
2022/12/06 09:04:11;;;;;;;2.55;2.35;;;17.50;47.50;;;;;;5015435;28;20215;-68
2022/12/06 09:06:39;;;;;;;2.80;2.60;;;17.50;47.50;;;;;;5014328;28;20197;-68
2022/12/06 09:09:06;;;;;;;3.00;2.70;;;17.50;47.40;;;;;;5014071;28;20251;-68
2022/12/06 09:11:34;;;;;;;3.10;2.78;;;17.50;47.40;;;;;;5014084;28;20216;-68
2022/12/06 09:14:01;;;;;;;2.70;2.50;;;17.50;47.40;;;;;;5014478;28;20560;-68
2022/12/06 09:16:28;;;;;;;2.75;2.55;;;17.60;47.00;;;;;;5015172;28;20189;-68
2022/12/06 09:18:55;;;;;;;2.67;2.47;;;17.60;47.10;;;;;;5013776;28;20247;-68
2022/12/06 09:21:23;;;;;;;2.40;2.20;;;17.70;47.00;;;;;;5015286;28;20207;-68
2022/12/06 09:23:50;;;;;;;2.92;2.63;;;17.70;46.80;;;;;;5014856;28;20185;-68
2022/12/06 09:26:17;;;;;;;2.90;2.70;;;17.70;46.70;;;;;;5013115;28;20205;-68
2022/12/06 09:28:48;;;;;;;2.70;2.45;;;17.80;46.60;;;;;;5013572;28;20593;-68
2022/12/06 09:31:15;;;;;;;2.50;2.30;;;17.80;46.70;;;;;;5013555;28;20228;-68
2022/12/06 09:33:42;;;;;;;3.70;2.83;;;17.90;46.70;;;;;;5013450;28;20201;-68
2022/12/06 09:36:11;;;;;;;2.80;2.60;;;17.90;46.50;;;;;;5013591;28;20227;-68
2022/12/06 09:38:38;;;;;;;2.83;2.50;;;17.90;46.40;;;;;;5013297;28;20271;-69
2022/12/06 09:41:11;;;;;;;2.95;2.75;;;17.90;46.40;;;;;;5013436;28;20192;-69
2022/12/06 09:43:45;;;;;;;3.00;2.70;;;17.90;46.50;;;;;;4997227;28;20208;-69
2022/12/06 09:46:22;;;;;;;2.92;2.70;;;17.80;46.60;;;;;;5013200;28;20209;-69
2022/12/06 09:49:21;;;;;;;3.28;2.90;;;17.80;46.60;;;;;;5013277;28;20742;-69
2022/12/06 09:52:03;;;;;;;2.95;2.75;;;17.80;46.70;;;;;;5008494;28;20216;-68
2022/12/06 09:54:39;;;;;;;2.90;2.70;;;17.80;46.70;;;;;;5013101;28;20204;-68
2022/12/06 09:57:08;;;;;;;3.42;3.13;;;17.80;46.70;;;;;;5014551;28;20259;-68
2022/12/06 09:59:41;;;;;;;3.33;3.03;;;17.80;46.70;;;;;;5013041;28;20557;-68
2022/12/06 10:02:21;;;;;;;3.85;2.80;;;17.70;46.70;;;;;;5014739;28;20185;-68
2022/12/06 10:05:12;;;;;;;2.90;2.67;;;17.70;46.70;;;;;;5014843;28;20260;-68
2022/12/06 10:07:43;;;;;;;3.10;2.80;;;17.80;46.70;;;;;;5013269;28;20300;-68
2022/12/06 10:10:16;;;;;;;3.80;2.80;;;17.80;46.80;;;;;;5012997;28;20308;-68
2022/12/06 10:12:55;;;;;;;3.40;3.10;;;17.80;46.90;;;;;;5013136;28;20322;-68
2022/12/06 10:15:27;;;;;;;2.90;2.70;;;17.80;46.80;;;;;;5013706;28;20197;-68
2022/12/06 10:18:23;;;;;;;2.97;2.70;;;17.80;46.90;;;;;;5013370;28;20197;-68
2022/12/06 10:20:52;;;;;;;3.03;2.63;;;17.80;46.90;;;;;;4943265;28;20206;-68
2022/12/06 10:23:28;;;;;;;3.10;2.80;;;17.80;46.90;;;;;;5014505;28;20616;-69
2022/12/06 10:25:57;;;;;;;2.97;2.78;;;17.80;46.70;;;;;;5013709;28;20192;-68
2022/12/06 10:28:28;;;;;;;3.20;2.90;;;17.70;46.70;;;;;;5013285;28;20199;-68
2022/12/06 10:30:56;;;;;;;2.90;2.70;;;17.70;46.60;;;;;;5014856;28;20280;-68
2022/12/06 10:33:30;;;;;;;5.00;3.40;;;17.70;46.60;;;;;;5013204;28;20220;-68
2022/12/06 10:36:00;;;;;;;3.30;3.00;;;17.70;46.70;;;;;;5013220;28;20193;-68
2022/12/06 10:38:30;;;;;;;2.95;2.75;;;17.70;46.70;;;;;;5016459;28;20188;-68
2022/12/06 10:41:03;;;;;;;3.55;3.25;;;17.70;46.70;;;;;;5017487;28;20201;-69
2022/12/06 10:43:33;;;;;;;3.60;3.22;;;17.80;46.70;;;;;;5017026;28;20562;-69
2022/12/06 10:48:58;;;;;;;3.30;2.97;;;17.70;46.70;;;;;;5016560;28;20216;-69
2022/12/06 10:51:31;;;;;;;3.60;3.30;;;17.80;46.90;;;;;;5016935;28;20291;-69
2022/12/06 10:54:01;;;;;;;3.70;3.40;;;17.80;46.70;;;;;;5016822;28;20199;-69
2022/12/06 10:56:29;;;;;;;3.25;2.85;;;17.80;46.70;;;;;;5016668;28;20200;-69
2022/12/06 10:58:58;;;;;;;3.42;3.13;;;17.80;46.60;;;;;;5016865;28;20225;-69
2022/12/06 11:01:27;;;;;;;3.10;2.80;;;17.80;46.60;;;;;;5016674;28;20197;-70
2022/12/06 11:03:59;;;;;;;3.65;3.35;;;17.80;46.60;;;;;;5016684;28;20651;-69
2022/12/06 11:06:30;;;;;;;3.50;3.20;;;17.90;46.70;;;;;;5017892;28;20228;-69
2022/12/06 11:09:00;;;;;;;3.20;3.00;;;17.90;46.60;;;;;;5016838;28;20220;-68
2022/12/06 11:11:29;;;;;;;3.30;3.00;;;17.80;47.30;;;;;;5019138;28;20185;-69
2022/12/06 11:13:58;;;;;;;3.30;3.00;;;17.90;46.60;;;;;;5018112;28;20208;-69
2022/12/06 11:16:27;;;;;;;3.80;3.05;;;17.90;46.60;;;;;;5021553;28;20192;-68
2022/12/06 11:18:57;;;;;;;3.70;3.40;;;17.90;46.70;;;;;;5017906;28;20645;-68
2022/12/06 11:21:26;;;;;;;3.67;3.38;;;17.80;46.50;;;;;;5019324;28;20208;-69
2022/12/06 11:23:56;;;;;;;3.78;3.05;;;17.90;46.50;;;;;;5017145;28;20205;-68
2022/12/06 11:26:29;;;;;;;3.50;3.20;;;17.90;46.40;;;;;;5016970;28;20279;-68
2022/12/06 11:29:04;;;;;;;3.65;3.35;;;17.90;46.40;;;;;;5016369;28;20220;-68
2022/12/06 11:31:33;;;;;;;3.30;3.00;;;17.90;46.40;;;;;;5016303;28;20295;-69
2022/12/06 11:34:01;;;;;;;3.30;3.00;;;17.90;46.40;;;;;;5017117;28;20197;-68
2022/12/06 11:36:29;;;;;;;3.10;2.90;;;17.90;46.20;;;;;;5015901;28;20200;-68
2022/12/06 11:38:56;;;;;;;3.67;2.90;;;18.00;46.10;;;;;;5015915;28;20221;-68
2022/12/06 11:41:25;;;;;;;3.20;2.90;;;18.00;46.10;;;;;;5016120;28;20212;-68
2022/12/06 11:43:52;;;;;;;3.10;2.90;;;18.10;46.00;;;;;;5015633;28;20196;-68
2022/12/06 11:46:19;;;;;;;3.30;3.00;;;18.10;45.90;;;;;;5015373;28;20255;-68
2022/12/06 11:48:46;;;;;;;3.50;3.20;;;18.10;45.90;;;;;;5015648;28;20224;-68
2022/12/06 11:51:18;;;;;;;3.45;3.15;;;18.20;45.80;;;;;;5015452;28;20208;-68
2022/12/06 11:53:53;;;;;;;2.97;2.78;;;18.20;45.80;;;;;;5015425;28;20216;-68
2022/12/06 11:56:22;;;;;;;2.88;2.67;;;18.20;45.70;;;;;;5016586;28;20231;-68
2022/12/06 11:58:56;;;;;;;2.90;2.70;;;18.20;45.90;;;;;;5015328;28;20220;-68
2022/12/06 12:01:25;;;;;;;3.10;2.80;;;18.20;45.80;;;;;;5015545;28;20205;-68
2022/12/06 12:03:53;;;;;;;2.83;2.63;;;18.30;45.80;;;;;;5014018;28;20730;-68
2022/12/06 12:06:22;;;;;;;3.10;2.80;;;18.30;45.90;;;;;;5015735;28;20201;-68
2022/12/06 12:08:54;;;;;;;3.20;2.90;;;18.30;45.80;;;;;;5015140;28;20268;-68
2022/12/06 12:11:22;;;;;;;2.95;2.72;;;18.30;45.80;;;;;;5015341;28;20292;-68
2022/12/06 12:13:50;;;;;;;3.03;2.83;;;18.20;45.70;;;;;;5015107;28;20216;-68
2022/12/06 12:16:18;;;;;;;3.10;2.80;;;18.20;45.70;;;;;;5016116;28;20189;-69
2022/12/06 12:18:51;;;;;;;4.15;2.55;;;18.20;46.20;;;;;;5014687;28;20239;-68
2022/12/06 12:21:18;;;;;;;2.70;2.50;;;18.10;45.90;;;;;;5016630;28;20192;-68
2022/12/06 12:23:47;;;;;;;2.75;2.55;;;18.10;46.10;;;;;;5015079;28;20197;-69
2022/12/06 12:26:15;;;;;;;2.97;2.70;;;18.10;46.10;;;;;;5015419;28;20209;-68
2022/12/06 12:28:43;;;;;;;3.00;2.60;;;18.10;46.10;;;;;;5015789;28;20216;-68
2022/12/06 12:31:11;;;;;;;3.15;2.50;;;18.00;46.00;;;;;;5015765;28;20211;-68
2022/12/06 12:33:38;;;;;;;2.60;2.40;;;18.00;46.10;;;;;;5014732;28;20625;-68
2022/12/06 12:36:15;;;;;;;3.30;2.28;;;18.00;46.20;;;;;;5014750;28;20200;-68
2022/12/06 12:38:43;;;;;;;3.10;2.80;;;18.00;46.20;;;;;;5014444;28;20219;-68
2022/12/06 12:41:25;;;;;;;2.60;2.40;;;18.00;46.20;;;;;;5014753;28;20207;-68
2022/12/06 12:43:59;;;;;;;2.42;2.22;;;18.00;46.20;;;;;;5014823;28;20181;-68
2022/12/06 12:46:27;;;;;;;2.53;2.33;;;17.90;46.10;;;;;;5015404;28;20208;-68
2022/12/06 12:48:55;;;;;;;2.72;2.53;;;17.90;46.10;;;;;;5014460;28;20234;-68
2022/12/06 12:51:32;;;;;;;2.90;2.70;;;17.90;46.30;;;;;;5014017;28;20201;-68
2022/12/06 12:54:00;;;;;;;2.30;2.10;;;17.90;46.30;;;;;;5013982;28;20208;-68
2022/12/06 12:56:29;;;;;;;2.17;2.03;;;17.90;46.30;;;;;;5014026;28;20192;-68
2022/12/06 12:58:56;;;;;;;2.40;2.20;;;17.90;46.30;;;;;;5015338;28;20628;-68
2022/12/06 13:01:39;;;;;;;2.47;2.28;;;17.90;46.30;;;;;;5013446;28;20593;-68
2022/12/06 13:04:12;;;;;;;2.20;2.10;;;17.90;46.10;;;;;;5011798;28;20284;-68
2022/12/06 13:06:43;;;;;;;2.17;2.08;;;17.90;46.30;;;;;;5015673;28;20184;-68
2022/12/06 13:09:14;;;;;;;2.53;2.33;;;17.90;46.30;;;;;;5014940;28;20208;-68
2022/12/06 13:11:45;;;;;;;2.20;2.10;;;17.90;46.40;;;;;;5013667;28;20235;-68
2022/12/06 13:14:14;;;;;;;2.30;2.10;;;17.90;46.30;;;;;;5015443;28;20196;-68
2022/12/06 13:16:42;;;;;;;2.25;2.05;;;17.90;46.30;;;;;;5013626;28;20207;-68
2022/12/06 13:19:09;;;;;;;2.10;2.00;;;17.90;46.30;;;;;;4997650;28;20691;-68
2022/12/06 13:21:37;;;;;;;2.28;2.10;;;17.90;46.30;;;;;;5013651;28;20557;-68
2022/12/06 13:24:07;;;;;;;2.08;1.98;;;17.90;46.50;;;;;;5013360;28;20200;-68